METAR Data
IDs: Format: Raw Decoded Include TAF

Data at: 2311 UTC 25 Oct 2021

KSGR 252253Z 16006KT 10SM CLR 31/21 A2990 RMK AO2 SLP124 T03110206
KSGR 252153Z 15006KT 10SM CLR 32/20 A2990 RMK AO2 SLP125 T03220200
KSGR 252053Z 00000KT 10SM CLR 32/21 A2990 RMK AO2 SLP126 T03170211 56019
KSGR 251953Z 00000KT 10SM CLR 33/21 A2992 RMK AO2 SLP131 T03280211
KSGR 251853Z 00000KT 10SM CLR 31/22 A2993 RMK AO2 SLP136 T03060217
KSGR 251800Z 00000KT 10SM SCT024 SCT032 30/22 A2995 RMK AO2 T03000222
KSGR 251753Z 19003KT 10SM BKN024 30/22 A2996 RMK AO2 SLP145 6//// T03000222 10306 20244 58007
KSGR 251653Z 00000KT 10SM BKN024 29/22 A2998 RMK AO2 SLP151 T02890222
KSGR 251650Z 24003KT 10SM SCT024 29/23 A2998 RMK AO2
KSGR 251611Z 00000KT 10SM SCT012 BKN025 28/23 A2998 RMK AO2 T02830233
KSGR 251553Z VRB03KT 10SM BKN013 OVC025 29/24 A2998 RMK AO2 SLP153 T02890239
KSGR 251538Z 00000KT 10SM SCT011 BKN025 27/24 A2998 RMK AO2 T02720239
KSGR 251523Z 27003KT 10SM FEW006 BKN011 OVC023 27/24 A2998 RMK AO2 T02670239
KSGR 251453Z 24003KT 10SM OVC005 26/24 A2998 RMK AO2 CIG 004V009 SLP154 6//// T02610239 51021
KSGR 251429Z VRB03KT 10SM OVC005 26/24 A2998 RMK AO2 T02560239
KSGR 251417Z 26003KT 10SM OVC004 26/24 A2998 RMK AO2 CIG 002V007 T02560239
KSGR 251400Z 24003KT 6SM BR OVC002 25/24 A2997 RMK AO2 T02500239
KSGR 251353Z 24003KT 2 1/2SM BR OVC002 25/24 A2997 RMK AO2 SLP150 T02500239
KSGR 251350Z 23003KT 2SM BR OVC002 25/24 A2997 RMK AO2
KSGR 251338Z 00000KT 1 3/4SM BR OVC003 25/24 A2996 RMK AO2 T02500239
KSGR 251329Z AUTO 00000KT 3SM BR OVC003 25/24 A2996 RMK AO2 T02500239
KSGR 251326Z AUTO 00000KT 1SM BR OVC003 25/24 A2996 RMK AO2 T02500239
KSGR 251320Z 00000KT 1/2SM FG VV003 25/24 A2996 RMK AO2 T02500239 PNO
KSGR 251253Z 00000KT 1/4SM FG VV002 25/23 A2995 RMK AO2 SLP142 T02500233 PNO
KSGR 251245Z 00000KT 1/4SM FG VV002 25/23 A2995 RMK AO2 T02500233 PNO
KSGR 251207Z 00000KT 1/2SM FG VV002 24/23 A2993 RMK AO2 T02440233 PNO
KSGR 251158Z 00000KT 3/4SM BR VV002 24/23 A2992 RMK AO2 T02440233 PNO
KSGR 251153Z 00000KT 1SM BR VV003 24/23 A2992 RMK AO2 SLP133 6//// 7//// T02440233 10256 20239 51006 PNO
KSGR 251141Z 00000KT 2 1/2SM BR OVC003 24/23 A2992 RMK AO2 T02440233 PNO
KSGR 251134Z 00000KT 1 3/4SM BR OVC004 24/23 A2992 RMK AO2 T02440233 PNO
KSGR 251122Z 00000KT 3/4SM BR VV004 24/23 A2991 RMK AO2 T02440233 PNO
KSGR 251105Z 00000KT 1/2SM FG BKN003 OVC007 24/23 A2991 RMK AO2 T02440233 PNO
KSGR 251053Z 00000KT 1/2SM FG VV002 24/23 A2991 RMK AO2 SLP128 T02440233 PNO
KSGR 251043Z AUTO 00000KT 1/2SM FG VV002 24/23 A2990 RMK AO2 T02440233 PNO $
KSGR 250953Z AUTO 00000KT 3/4SM BR VV002 24/23 A2990 RMK AO2 SLP126 T02440233 PNO $
KSGR 250920Z AUTO 00000KT 1/2SM FG VV002 24/23 A2990 RMK AO2 T02440233 PNO $
KSGR 250904Z AUTO 19004KT 3/4SM BR VV003 24/23 A2990 RMK AO2 T02440233 PNO $
KSGR 250853Z AUTO 18005KT 1/2SM FG VV002 24/23 A2990 RMK AO2 SLP125 6//// T02440233 58002 PNO $
KSGR 250841Z AUTO 19005KT 1/2SM FG VV002 25/23 A2990 RMK AO2 T02500233 PNO $
KSGR 250829Z AUTO 20005KT 1/2SM FG VV003 25/23 A2990 RMK AO2 T02500233 PNO $
KSGR 250814Z AUTO 19004KT 1SM BR VV003 25/23 A2991 RMK AO2 T02500233 PNO $
KSGR 250807Z AUTO 20005KT 3/4SM BR VV002 25/23 A2991 RMK AO2 T02500233 PNO $
KSGR 250753Z AUTO 19005KT 1/2SM FG VV002 25/24 A2991 RMK AO2 SLP129 T02500239 PNO $
KSGR 250714Z AUTO 20005KT 1/2SM FG VV002 25/24 A2991 RMK AO2 T02500239 PNO $
KSGR 250700Z AUTO 20003KT 1 1/4SM BR OVC002 25/24 A2991 RMK AO2 T02500239 PNO $
KSGR 250653Z AUTO 00000KT 2SM BR OVC002 25/24 A2990 RMK AO2 SLP127 T02500239 PNO $
KSGR 250650Z AUTO 21004KT 3SM BR OVC002 25/24 A2991 RMK AO2 PNO $
KSGR 250640Z AUTO 21004KT 8SM BKN004 OVC013 26/24 A2990 RMK AO2 T02560239 PNO $
KSGR 250553Z AUTO 20006KT 10SM OVC006 25/23 A2990 RMK AO2 SLP124 6//// T02500233 10289 20244 403280211 51007 PNO $
KSGR 250515Z AUTO 00000KT 10SM BKN007 24/23 A2989 RMK AO2 T02440228 PNO $
KSGR 250506Z AUTO 20003KT 10SM SCT007 24/23 A2989 RMK AO2 T02440228 PNO $
KSGR 250453Z AUTO 19003KT 10SM CLR 25/23 A2989 RMK AO2 SLP121 T02500228 PNO $
KSGR 250418Z AUTO 18007KT 10SM SCT010 26/23 A2989 RMK AO2 T02560233 PNO $
KSGR 250353Z AUTO 16005KT 10SM BKN008 26/23 A2989 RMK AO2 SLP124 T02560233 PNO $
KSGR 250343Z AUTO 14005KT 10SM BKN009 26/23 A2990 RMK AO2 T02560233 PNO $
KSGR 250334Z AUTO 16003KT 10SM SCT009 25/23 A2989 RMK AO2 T02500228 PNO $
KSGR 250253Z AUTO 15005KT 10SM CLR 26/23 A2987 RMK AO2 SLP117 6//// T02560233 53020 PNO $
KSGR 250153Z 14007KT 10SM CLR 27/23 A2985 RMK AO2 SLP109 T02670233 PNO $
KSGR 250053Z 15008KT 10SM CLR 28/23 A2983 RMK AO2 SLP101 T02780233 PNO $
KSGR 242353Z 14006KT 10SM BKN040 29/23 A2981 RMK AO2 SLP097 6//// T02890233 10328 20289 53004 PNO /
KSGR 242253Z 15006KT 10SM CLR 30/22 A2980 RMK AO2 SLP094 T03000222 PNO $
KSGR 242153Z 18005KT 10SM FEW044 32/21 A2980 RMK AO2 SLP092 T03170211 PNO $
KSGR 242053Z VRB06KT 10SM CLR 32/21 A2980 RMK AO2 SLP092 6//// T03220206 56020 PNO $
KSGR 241953Z VRB03KT 10SM FEW038 32/21 A2981 RMK AO2 SLP096 T03170211 PNO $
KSGR 241853Z 20005KT 10SM SCT034 32/22 A2984 RMK AO2 SLP104 T03220217 PNO $
KSGR 241753Z 00000KT 10SM CLR 31/21 A2986 RMK AO2 SLP113 6//// T03060211 10306 20228 58008 PNO $
KSGR 241653Z 00000KT 10SM SCT024 BKN031 29/22 A2989 RMK AO2 SLP122 T02890222 PNO $
KSGR 241607Z 13008KT 10SM SCT027 28/23 A2989 RMK AO2 T02830228 PNO $
KSGR 241553Z 12008KT 10SM FEW016 BKN026 28/23 A2990 RMK AO2 SLP125 T02780228 PNO $
KSGR 241518Z 13010KT 10SM SCT013 BKN027 BKN032 27/23 A2990 RMK AO2 T02720228 PNO $
KSGR 241453Z 14008KT 10SM FEW010 BKN046 27/23 A2989 RMK AO2 SLP122 6//// T02670228 53015 PNO $
KSGR 241353Z 12006KT 10SM FEW009 FEW039 25/22 A2987 RMK AO2 SLP115 T02500222 PNO $
KSGR 241336Z 12006KT 10SM FEW009 24/22 A2986 RMK AO2 T02440217 PNO $
KSGR 241253Z 11004KT 10SM SCT010 23/21 A2984 RMK AO2 SLP107 T02330211 PNO $
KSGR 241226Z 10004KT 10SM SCT011 23/21 A2984 RMK AO2 T02280211 PNO $
KSGR 241204Z 10005KT 10SM BKN011 BKN060 23/21 A2984 RMK AO2 T02280211 PNO $
KSGR 241153Z 10005KT 10SM FEW009 SCT046 BKN060 23/21 A2984 RMK AO2 SLP107 6//// 7//// T02280206 10228 20211 55003 PNO $